createdAt,value
2023-01-31T00:01:18.112Z,3.30
2023-01-31T00:06:20.268Z,2.80
2023-01-31T00:08:50.301Z,3.22
2023-01-31T00:11:20.974Z,4.00
2023-01-31T00:13:50.859Z,2.47
2023-01-31T00:16:22.855Z,3.78
2023-01-31T00:18:52.574Z,2.78
2023-01-31T00:21:22.708Z,2.95
2023-01-31T00:23:52.943Z,4.80
2023-01-31T00:26:23.488Z,2.45
2023-01-31T00:28:53.728Z,3.58
2023-01-31T00:31:27.982Z,3.22
2023-01-31T00:33:57.632Z,2.83
2023-01-31T00:36:28.285Z,2.05
2023-01-31T00:38:58.573Z,1.95
2023-01-31T00:41:30.109Z,2.28
2023-01-31T00:43:59.981Z,2.83
2023-01-31T00:46:30.845Z,1.88
2023-01-31T00:49:00.115Z,2.80
2023-01-31T00:51:31.379Z,3.53
2023-01-31T00:54:02.455Z,1.98
2023-01-31T00:56:32.662Z,2.15
2023-01-31T00:59:04.322Z,2.28
2023-01-31T01:04:03.809Z,2.63
2023-01-31T01:06:36.235Z,2.53
2023-01-31T01:09:05.891Z,2.25
2023-01-31T01:11:36.837Z,2.22
2023-01-31T01:14:06.051Z,3.05
2023-01-31T01:16:37.128Z,1.95
2023-01-31T01:19:09.553Z,1.75
2023-01-31T01:24:13.899Z,2.20
2023-01-31T01:26:43.037Z,1.88
2023-01-31T01:29:12.372Z,2.17
2023-01-31T01:31:42.022Z,1.67
2023-01-31T01:34:14.364Z,1.85
2023-01-31T01:36:45.543Z,1.35
2023-01-31T01:39:21.289Z,2.00
2023-01-31T01:41:51.180Z,1.90
2023-01-31T01:44:39.059Z,2.17
2023-01-31T01:47:10.693Z,1.30
2023-01-31T01:49:41.284Z,1.38
2023-01-31T01:52:11.687Z,1.35
2023-01-31T01:54:43.885Z,1.92
2023-01-31T01:57:13.573Z,2.15
2023-01-31T01:59:44.839Z,2.30
2023-01-31T02:02:14.862Z,1.50
2023-01-31T02:04:47.009Z,2.00
2023-01-31T02:07:15.992Z,2.28
2023-01-31T02:09:49.349Z,1.77
2023-01-31T02:12:18.752Z,1.60
2023-01-31T02:14:48.497Z,1.00
2023-01-31T02:17:19.259Z,1.73
2023-01-31T02:20:01.290Z,1.58
2023-01-31T02:22:34.808Z,1.10
2023-01-31T02:25:22.727Z,1.65
2023-01-31T02:28:05.433Z,1.80
2023-01-31T02:30:41.981Z,3.15
2023-01-31T02:33:20.362Z,1.50
2023-01-31T02:35:55.204Z,1.70
2023-01-31T02:38:35.927Z,1.33
2023-01-31T02:41:10.467Z,1.15
2023-01-31T02:44:03.012Z,1.25
2023-01-31T02:46:37.312Z,1.52
2023-01-31T02:49:13.035Z,1.65
2023-01-31T02:52:05.914Z,2.05
2023-01-31T02:54:49.752Z,1.63
2023-01-31T02:57:19.830Z,1.65
2023-01-31T02:59:49.419Z,1.92
2023-01-31T03:02:19.457Z,2.33
2023-01-31T03:04:50.538Z,1.73
2023-01-31T03:07:26.608Z,2.23
2023-01-31T03:10:01.583Z,1.52
2023-01-31T03:12:46.492Z,2.05
2023-01-31T03:15:51.357Z,1.70
2023-01-31T03:18:23.406Z,2.15
2023-01-31T03:20:56.579Z,1.42
2023-01-31T03:23:31.360Z,2.38
2023-01-31T03:26:03.035Z,0.93
2023-01-31T03:28:36.250Z,1.52
2023-01-31T03:31:08.352Z,2.28
2023-01-31T03:33:42.668Z,1.58
2023-01-31T03:36:18.030Z,1.80
2023-01-31T03:38:58.688Z,2.97
2023-01-31T03:41:32.575Z,1.60
2023-01-31T03:44:06.093Z,2.20
2023-01-31T03:46:44.075Z,2.08
2023-01-31T03:49:16.971Z,1.90
2023-01-31T03:51:49.343Z,1.85
2023-01-31T03:54:21.094Z,1.55
2023-01-31T03:56:55.237Z,1.20
2023-01-31T03:59:27.212Z,1.70
2023-01-31T04:01:58.510Z,2.42
2023-01-31T04:04:30.888Z,1.77
2023-01-31T04:07:02.352Z,3.17
2023-01-31T04:09:37.684Z,1.50
2023-01-31T04:12:07.748Z,3.10
2023-01-31T04:14:37.220Z,2.55
2023-01-31T04:17:07.275Z,2.38
2023-01-31T04:19:37.869Z,1.65
2023-01-31T04:22:08.842Z,1.60
2023-01-31T04:24:40.675Z,2.17
2023-01-31T04:29:39.345Z,2.20
2023-01-31T04:32:09.538Z,1.15
2023-01-31T04:34:39.181Z,1.50
2023-01-31T04:37:12.681Z,2.00
2023-01-31T04:39:44.521Z,1.73
2023-01-31T04:42:15.734Z,3.42
2023-01-31T04:44:47.541Z,1.30
2023-01-31T04:47:18.065Z,1.40
2023-01-31T04:49:47.594Z,1.65
2023-01-31T04:52:24.553Z,1.85
2023-01-31T04:54:57.500Z,1.70
2023-01-31T04:57:27.751Z,1.60
2023-01-31T04:59:57.517Z,1.42
2023-01-31T05:02:27.302Z,1.58
2023-01-31T05:04:57.123Z,1.83
2023-01-31T05:07:28.394Z,1.60
2023-01-31T05:09:58.768Z,1.65
2023-01-31T05:12:28.596Z,1.95
2023-01-31T05:14:58.381Z,1.08
2023-01-31T05:17:30.371Z,2.00
2023-01-31T05:20:04.564Z,1.45
2023-01-31T05:22:36.376Z,1.50
2023-01-31T05:25:11.780Z,2.35
2023-01-31T05:27:41.779Z,1.02
2023-01-31T05:30:12.519Z,1.70
2023-01-31T05:32:42.476Z,1.08
2023-01-31T05:35:13.132Z,2.05
2023-01-31T05:37:45.324Z,1.73
2023-01-31T05:40:16.213Z,2.35
2023-01-31T05:42:46.071Z,2.13
2023-01-31T05:45:16.848Z,1.40
2023-01-31T05:47:48.668Z,1.40
2023-01-31T05:50:18.493Z,2.47
2023-01-31T05:52:56.370Z,1.95
2023-01-31T05:55:27.323Z,1.80
2023-01-31T05:57:58.268Z,1.40
2023-01-31T06:00:29.347Z,1.88
2023-01-31T06:03:04.972Z,1.92
2023-01-31T06:05:37.054Z,1.35
2023-01-31T06:08:08.371Z,1.65
2023-01-31T06:10:37.937Z,1.67
2023-01-31T06:13:07.983Z,1.27
2023-01-31T06:15:37.922Z,1.58
2023-01-31T06:18:07.679Z,1.40
2023-01-31T06:20:39.164Z,1.92
2023-01-31T06:23:18.256Z,1.80
2023-01-31T06:25:51.066Z,1.33
2023-01-31T06:28:20.601Z,1.38
2023-01-31T06:30:51.564Z,0.90
2023-01-31T06:33:24.481Z,1.15
2023-01-31T06:36:01.308Z,0.85
2023-01-31T06:38:32.844Z,1.45
2023-01-31T06:41:03.093Z,1.80
2023-01-31T06:43:32.899Z,1.55
2023-01-31T06:46:02.407Z,1.10
2023-01-31T06:48:32.838Z,1.73
2023-01-31T06:51:04.084Z,2.80
2023-01-31T06:53:35.212Z,2.35
2023-01-31T06:56:04.647Z,1.40
2023-01-31T06:58:34.828Z,2.28
2023-01-31T07:01:09.839Z,1.02
2023-01-31T07:03:42.546Z,1.98
2023-01-31T07:06:12.254Z,0.90
2023-01-31T07:08:43.499Z,1.10
2023-01-31T07:11:13.406Z,1.33
2023-01-31T07:13:42.990Z,1.13
2023-01-31T07:16:14.442Z,0.80
2023-01-31T07:18:44.719Z,1.60
2023-01-31T07:21:14.258Z,1.05
2023-01-31T07:23:47.388Z,1.58
2023-01-31T07:26:17.208Z,1.83
2023-01-31T07:28:47.163Z,0.93
2023-01-31T07:31:16.769Z,0.98
2023-01-31T07:33:46.270Z,1.10
2023-01-31T07:36:16.683Z,0.90
2023-01-31T07:38:48.441Z,1.10
2023-01-31T07:41:18.451Z,1.27
2023-01-31T07:43:47.774Z,1.25
2023-01-31T07:46:19.032Z,1.20
2023-01-31T07:48:48.821Z,2.17
2023-01-31T07:51:18.905Z,2.30
2023-01-31T07:53:50.947Z,1.20
2023-01-31T07:56:20.992Z,1.77
2023-01-31T07:58:51.341Z,1.15
2023-01-31T08:01:39.353Z,1.48
2023-01-31T08:04:20.574Z,2.33
2023-01-31T08:06:51.828Z,1.33
2023-01-31T08:09:25.726Z,1.25
2023-01-31T08:11:55.108Z,1.10
2023-01-31T08:14:25.699Z,1.55
2023-01-31T08:16:55.457Z,1.45
2023-01-31T08:19:29.553Z,1.67
2023-01-31T08:21:59.252Z,1.10
2023-01-31T08:24:31.831Z,1.40
2023-01-31T08:27:02.218Z,0.80
2023-01-31T08:29:31.712Z,1.48
2023-01-31T08:32:02.707Z,1.02
2023-01-31T08:34:32.895Z,1.60
2023-01-31T08:37:04.296Z,1.40
2023-01-31T08:39:35.793Z,1.35
2023-01-31T08:42:06.932Z,1.40
2023-01-31T08:44:42.278Z,1.48
2023-01-31T08:47:13.084Z,1.65
2023-01-31T08:49:44.635Z,2.10
2023-01-31T08:52:13.976Z,3.03
2023-01-31T08:54:45.014Z,2.47
2023-01-31T08:57:14.419Z,1.50
2023-01-31T08:59:45.252Z,1.70
2023-01-31T09:02:14.772Z,2.03
2023-01-31T09:04:45.322Z,2.00
2023-01-31T09:07:15.393Z,2.72
2023-01-31T09:09:47.469Z,2.03
2023-01-31T09:12:18.571Z,1.30
2023-01-31T09:14:48.152Z,1.77
2023-01-31T09:17:19.163Z,1.73
2023-01-31T09:19:48.326Z,2.90
2023-01-31T09:22:18.199Z,3.35
2023-01-31T09:24:49.304Z,2.67
2023-01-31T09:27:19.566Z,1.73
2023-01-31T09:29:49.475Z,2.40
2023-01-31T09:32:24.057Z,1.58
2023-01-31T09:34:58.717Z,3.30
2023-01-31T09:37:29.808Z,1.60
2023-01-31T09:40:01.848Z,3.55
2023-01-31T09:42:36.055Z,2.47
2023-01-31T09:45:40.640Z,3.08
2023-01-31T09:48:14.295Z,1.73
2023-01-31T09:50:45.926Z,2.15
2023-01-31T09:53:36.850Z,1.85
2023-01-31T09:56:19.475Z,1.98
2023-01-31T09:58:55.157Z,1.80
2023-01-31T10:01:30.638Z,2.40
2023-01-31T10:04:05.703Z,1.83
2023-01-31T10:06:44.016Z,1.75
2023-01-31T10:09:22.101Z,3.00
2023-01-31T10:11:55.318Z,2.05
2023-01-31T10:17:20.882Z,1.88
2023-01-31T10:19:56.535Z,2.05
2023-01-31T10:22:33.952Z,2.45
2023-01-31T10:25:24.643Z,1.65
2023-01-31T10:28:45.125Z,2.08
2023-01-31T10:31:25.487Z,1.35
2023-01-31T10:33:57.684Z,1.75
2023-01-31T10:36:32.984Z,2.08
2023-01-31T10:39:07.416Z,1.48
2023-01-31T10:41:53.215Z,1.98
2023-01-31T10:44:26.959Z,1.40
2023-01-31T10:47:01.378Z,2.28
2023-01-31T10:49:32.034Z,2.42
2023-01-31T10:52:09.482Z,1.60
2023-01-31T10:54:50.844Z,2.20
2023-01-31T10:57:27.828Z,1.63
2023-01-31T10:59:59.817Z,1.58
2023-01-31T11:02:37.129Z,1.98
2023-01-31T11:05:08.915Z,2.67
2023-01-31T11:07:42.362Z,1.42
2023-01-31T11:10:24.269Z,1.60
2023-01-31T11:12:59.427Z,1.60
2023-01-31T11:15:30.594Z,1.95
2023-01-31T11:18:12.884Z,1.48
2023-01-31T11:21:12.363Z,1.50
2023-01-31T11:23:50.358Z,1.50
2023-01-31T11:26:34.111Z,3.10
2023-01-31T11:29:13.092Z,2.00
2023-01-31T11:31:50.381Z,2.47
2023-01-31T11:34:24.387Z,1.40
2023-01-31T11:36:57.301Z,1.60
2023-01-31T11:39:28.810Z,2.13
2023-01-31T11:42:16.848Z,1.55
2023-01-31T11:45:20.660Z,1.63
2023-01-31T11:47:52.320Z,1.83
2023-01-31T11:50:28.349Z,1.65
2023-01-31T11:52:59.422Z,1.45
2023-01-31T11:55:29.346Z,1.05
2023-01-31T11:58:01.000Z,1.92
2023-01-31T12:00:33.152Z,1.30
2023-01-31T12:03:13.250Z,1.38
2023-01-31T12:05:47.517Z,1.92
2023-01-31T12:08:36.092Z,1.10
2023-01-31T12:11:14.416Z,1.00
2023-01-31T12:13:50.919Z,1.38
2023-01-31T12:16:23.172Z,1.00
2023-01-31T12:19:00.792Z,1.38
2023-01-31T12:21:43.144Z,1.10
2023-01-31T12:24:18.978Z,1.25
2023-01-31T12:26:52.278Z,1.13
2023-01-31T12:29:27.926Z,1.73
2023-01-31T12:32:18.216Z,1.38
2023-01-31T12:35:10.066Z,1.23
2023-01-31T12:38:02.399Z,0.85
2023-01-31T12:40:39.703Z,1.17
2023-01-31T12:43:17.506Z,1.08
2023-01-31T12:45:54.552Z,1.02
2023-01-31T12:48:42.171Z,1.30
2023-01-31T12:51:17.044Z,0.95
2023-01-31T12:53:56.425Z,1.05
2023-01-31T12:56:36.306Z,0.80
2023-01-31T12:59:16.067Z,1.20
2023-01-31T13:01:49.443Z,1.00
2023-01-31T13:04:39.293Z,0.90
2023-01-31T13:07:12.751Z,1.38
2023-01-31T13:09:42.876Z,0.98
2023-01-31T13:12:15.111Z,1.38
2023-01-31T13:14:46.045Z,1.20
2023-01-31T13:17:17.329Z,0.80
2023-01-31T13:19:50.497Z,0.90
2023-01-31T13:22:22.429Z,1.10
2023-01-31T13:24:54.235Z,1.17
2023-01-31T13:27:26.971Z,1.10
2023-01-31T13:30:04.344Z,1.10
2023-01-31T13:32:39.296Z,1.52
2023-01-31T13:35:17.540Z,1.35
2023-01-31T13:37:51.108Z,1.00
2023-01-31T13:40:22.631Z,0.80
2023-01-31T13:43:01.205Z,1.02
2023-01-31T13:45:34.533Z,0.90
2023-01-31T13:48:06.978Z,1.23
2023-01-31T16:00:34.192Z,2.08
2023-01-31T16:03:03.966Z,2.60
2023-01-31T16:05:35.353Z,1.63
2023-01-31T16:08:06.001Z,1.48
2023-01-31T16:10:42.479Z,2.30
2023-01-31T16:13:12.208Z,1.95
2023-01-31T16:15:44.109Z,2.33
2023-01-31T16:18:14.219Z,1.73
2023-01-31T16:20:45.645Z,2.22
2023-01-31T16:25:52.407Z,2.83
2023-01-31T16:28:22.103Z,1.63
2023-01-31T16:30:53.983Z,1.85
2023-01-31T16:33:25.256Z,1.90
2023-01-31T16:36:13.179Z,2.00
2023-01-31T16:38:44.937Z,3.05
2023-01-31T16:41:14.684Z,2.60
2023-01-31T16:43:44.953Z,2.17
2023-01-31T16:46:21.638Z,2.10
2023-01-31T16:49:08.467Z,1.92
2023-01-31T16:51:45.104Z,2.42
2023-01-31T16:54:17.263Z,1.60
2023-01-31T16:59:35.090Z,2.40
2023-01-31T17:02:07.261Z,2.08
2023-01-31T17:04:39.827Z,2.03
2023-01-31T17:07:10.486Z,2.25
2023-01-31T17:09:40.763Z,2.58
2023-01-31T17:12:17.851Z,2.80
2023-01-31T17:14:47.245Z,2.10
2023-01-31T17:17:22.172Z,3.03
2023-01-31T17:19:51.749Z,1.80
2023-01-31T17:22:22.517Z,2.25
2023-01-31T17:24:52.073Z,2.00
2023-01-31T17:27:22.540Z,2.72
2023-01-31T17:29:51.899Z,2.10
2023-01-31T17:32:23.114Z,2.33
2023-01-31T17:34:52.554Z,2.37
2023-01-31T17:37:31.172Z,2.10
2023-01-31T17:40:01.952Z,2.92
2023-01-31T17:42:33.529Z,2.03
2023-01-31T17:45:02.735Z,2.03
2023-01-31T17:47:33.077Z,2.30
2023-01-31T17:50:02.137Z,2.90
2023-01-31T17:52:31.230Z,2.53
2023-01-31T17:55:00.354Z,2.45
2023-01-31T17:57:29.825Z,2.25
2023-01-31T18:00:02.278Z,3.20
2023-01-31T18:02:37.548Z,2.70
2023-01-31T18:05:07.504Z,3.63
2023-01-31T18:07:37.991Z,3.07
2023-01-31T18:10:08.350Z,2.95
2023-01-31T18:12:38.211Z,3.72
2023-01-31T18:15:08.076Z,3.65
2023-01-31T18:17:38.670Z,2.90
2023-01-31T18:20:10.846Z,2.60
2023-01-31T18:22:39.944Z,3.83
2023-01-31T18:25:09.265Z,2.70
2023-01-31T18:27:40.198Z,3.97
2023-01-31T18:30:10.377Z,2.65
2023-01-31T18:32:44.110Z,2.78
2023-01-31T18:35:13.195Z,3.03
2023-01-31T18:37:42.321Z,2.00
2023-01-31T18:40:12.292Z,2.15
2023-01-31T18:42:41.420Z,2.70
2023-01-31T18:45:13.055Z,2.70
2023-01-31T18:47:43.665Z,2.38
2023-01-31T18:50:13.160Z,5.18
2023-01-31T18:52:43.924Z,1.88
2023-01-31T18:55:13.097Z,2.38
2023-01-31T18:57:42.218Z,2.63
2023-01-31T19:00:11.941Z,2.60
2023-01-31T19:02:41.113Z,2.75
2023-01-31T19:05:11.710Z,1.88
2023-01-31T19:07:40.736Z,2.20
2023-01-31T19:10:10.633Z,2.95
2023-01-31T19:12:40.515Z,2.03
2023-01-31T19:15:10.882Z,2.75
2023-01-31T19:17:44.808Z,2.58
2023-01-31T19:20:15.639Z,2.45
2023-01-31T19:22:44.848Z,2.25
2023-01-31T19:25:14.877Z,2.42
2023-01-31T19:27:44.066Z,3.78
2023-01-31T19:30:13.786Z,3.33
2023-01-31T19:32:42.923Z,3.35
2023-01-31T19:35:12.231Z,3.67
2023-01-31T19:37:43.156Z,2.13
2023-01-31T19:40:16.534Z,3.38
2023-01-31T19:42:45.882Z,2.72
2023-01-31T19:45:18.298Z,4.55
2023-01-31T19:47:52.544Z,2.30
2023-01-31T19:50:22.006Z,3.28
2023-01-31T19:52:52.805Z,2.72
2023-01-31T19:55:23.548Z,2.40
2023-01-31T19:57:53.563Z,2.90
2023-01-31T20:00:22.969Z,2.20
2023-01-31T20:02:52.627Z,4.10
2023-01-31T20:05:22.908Z,2.40
2023-01-31T20:07:53.965Z,3.40
2023-01-31T20:10:23.771Z,3.97
2023-01-31T20:12:53.296Z,3.38
2023-01-31T20:15:22.625Z,3.63
2023-01-31T20:17:51.767Z,4.00
2023-01-31T20:20:21.068Z,4.18
2023-01-31T20:22:50.653Z,3.80
2023-01-31T20:25:21.953Z,3.40
2023-01-31T20:27:51.344Z,3.45
2023-01-31T20:30:23.592Z,3.05
2023-01-31T20:32:53.506Z,2.60
2023-01-31T20:35:22.697Z,2.60
2023-01-31T20:37:51.937Z,2.55
2023-01-31T20:40:23.461Z,2.70
2023-01-31T20:42:58.364Z,2.85
2023-01-31T20:45:29.273Z,2.20
2023-01-31T20:47:59.061Z,3.57
2023-01-31T20:50:29.255Z,3.20
2023-01-31T20:52:58.532Z,4.63
2023-01-31T20:55:30.638Z,3.20
2023-01-31T21:00:28.748Z,3.50
2023-01-31T21:02:58.966Z,2.63
2023-01-31T21:05:28.009Z,3.38
2023-01-31T21:07:59.745Z,2.35
2023-01-31T21:10:30.765Z,3.03
2023-01-31T21:13:00.105Z,3.08
2023-01-31T21:15:29.407Z,3.22
2023-01-31T21:17:58.853Z,4.68
2023-01-31T21:20:28.251Z,2.80
2023-01-31T21:22:57.799Z,2.95
2023-01-31T21:25:27.346Z,3.33
2023-01-31T21:27:58.375Z,2.50
2023-01-31T21:30:27.621Z,3.05
2023-01-31T21:32:57.215Z,2.90
2023-01-31T21:35:27.627Z,2.72
2023-01-31T21:37:56.777Z,3.38
2023-01-31T21:40:27.191Z,2.80
2023-01-31T21:42:56.990Z,2.88
2023-01-31T21:48:32.351Z,3.25
2023-01-31T21:51:04.816Z,3.25
2023-01-31T21:53:34.441Z,2.15
2023-01-31T21:56:03.995Z,2.45
2023-01-31T21:58:33.871Z,3.25
2023-01-31T22:01:06.974Z,2.58
2023-01-31T22:03:38.185Z,2.60
2023-01-31T22:06:08.432Z,2.58
2023-01-31T22:08:38.059Z,2.63
2023-01-31T22:11:08.196Z,2.38
2023-01-31T22:13:38.337Z,3.22
2023-01-31T22:16:09.972Z,2.65
2023-01-31T22:18:42.560Z,3.17
2023-01-31T22:23:41.831Z,2.97
2023-01-31T22:26:12.054Z,2.38
2023-01-31T22:28:41.682Z,2.78
2023-01-31T22:31:11.359Z,2.35
2023-01-31T22:33:42.832Z,4.78
2023-01-31T22:36:13.807Z,4.40
2023-01-31T22:38:43.042Z,2.58
2023-01-31T22:41:13.684Z,2.75
2023-01-31T22:43:43.273Z,3.10
2023-01-31T22:46:14.067Z,2.75
2023-01-31T22:48:45.487Z,2.60
2023-01-31T22:51:18.763Z,3.03
2023-01-31T22:53:49.443Z,4.10
2023-01-31T22:56:20.037Z,2.92
2023-01-31T22:58:50.878Z,2.13
2023-01-31T23:01:22.177Z,2.42
2023-01-31T23:03:57.184Z,2.88
2023-01-31T23:06:27.472Z,3.38
2023-01-31T23:08:57.198Z,3.55
2023-01-31T23:11:26.899Z,4.25
2023-01-31T23:13:56.332Z,1.73
2023-01-31T23:16:46.883Z,3.42
2023-01-31T23:19:17.415Z,1.70
2023-01-31T23:21:48.832Z,2.83
2023-01-31T23:24:20.082Z,3.65
2023-01-31T23:26:49.935Z,3.75
2023-01-31T23:29:19.111Z,2.40
2023-01-31T23:31:48.282Z,2.78
2023-01-31T23:34:19.116Z,2.17
2023-01-31T23:36:48.460Z,3.53
2023-01-31T23:39:17.854Z,2.53
2023-01-31T23:41:47.489Z,2.70
2023-01-31T23:44:16.891Z,3.42
2023-01-31T23:46:46.064Z,3.38
2023-01-31T23:49:15.162Z,3.13
2023-01-31T23:51:46.085Z,2.78
2023-01-31T23:54:15.231Z,3.28
2023-01-31T23:56:45.105Z,3.40
2023-01-31T23:59:17.171Z,4.88
